sensor_id;sensor_type;location;lat;lon;timestamp;pressure;altitude;pressure_sealevel;temperature;humidity
76229;BME280;65021;53.174;18.160;2023-02-25T00:01:27;98815.59;;;2.49;76.85
76229;BME280;65021;53.174;18.160;2023-02-25T00:03:55;98812.09;;;2.51;77.01
76229;BME280;65021;53.174;18.160;2023-02-25T00:06:23;98811.77;;;2.52;77.16
76229;BME280;65021;53.174;18.160;2023-02-25T00:08:51;98807.08;;;2.53;77.20
76229;BME280;65021;53.174;18.160;2023-02-25T00:11:18;98805.11;;;2.54;77.52
76229;BME280;65021;53.174;18.160;2023-02-25T00:13:45;98800.95;;;2.54;77.30
76229;BME280;65021;53.174;18.160;2023-02-25T00:16:13;98792.65;;;2.56;77.37
76229;BME280;65021;53.174;18.160;2023-02-25T00:18:40;98790.54;;;2.57;77.46
76229;BME280;65021;53.174;18.160;2023-02-25T00:21:10;98784.89;;;2.57;77.56
76229;BME280;65021;53.174;18.160;2023-02-25T00:23:45;98784.03;;;2.58;77.37
76229;BME280;65021;53.174;18.160;2023-02-25T00:26:12;98780.71;;;2.59;77.31
76229;BME280;65021;53.174;18.160;2023-02-25T00:28:39;98776.77;;;2.59;77.47
76229;BME280;65021;53.174;18.160;2023-02-25T00:31:09;98779.30;;;2.60;77.36
76229;BME280;65021;53.174;18.160;2023-02-25T00:33:36;98773.98;;;2.60;77.55
76229;BME280;65021;53.174;18.160;2023-02-25T00:36:09;98771.95;;;2.60;77.53
76229;BME280;65021;53.174;18.160;2023-02-25T00:38:36;98771.18;;;2.60;77.48
76229;BME280;65021;53.174;18.160;2023-02-25T00:41:09;98770.23;;;2.59;77.74
76229;BME280;65021;53.174;18.160;2023-02-25T00:43:41;98765.14;;;2.57;77.96
76229;BME280;65021;53.174;18.160;2023-02-25T00:46:11;98760.35;;;2.56;77.70
76229;BME280;65021;53.174;18.160;2023-02-25T00:48:38;98756.29;;;2.55;77.69
76229;BME280;65021;53.174;18.160;2023-02-25T00:51:06;98753.56;;;2.54;78.01
76229;BME280;65021;53.174;18.160;2023-02-25T00:53:34;98756.20;;;2.53;78.03
76229;BME280;65021;53.174;18.160;2023-02-25T00:56:05;98754.86;;;2.53;77.96
76229;BME280;65021;53.174;18.160;2023-02-25T00:58:35;98750.56;;;2.52;77.92
76229;BME280;65021;53.174;18.160;2023-02-25T01:01:04;98742.52;;;2.51;77.95
76229;BME280;65021;53.174;18.160;2023-02-25T01:03:32;98741.54;;;2.50;78.01
76229;BME280;65021;53.174;18.160;2023-02-25T01:05:58;98737.45;;;2.49;78.26
76229;BME280;65021;53.174;18.160;2023-02-25T01:08:25;98734.09;;;2.49;78.28
76229;BME280;65021;53.174;18.160;2023-02-25T01:10:51;98729.26;;;2.50;78.17
76229;BME280;65021;53.174;18.160;2023-02-25T01:13:18;98726.77;;;2.52;78.05
76229;BME280;65021;53.174;18.160;2023-02-25T01:15:45;98723.05;;;2.53;77.95
76229;BME280;65021;53.174;18.160;2023-02-25T01:18:12;98719.30;;;2.54;78.01
76229;BME280;65021;53.174;18.160;2023-02-25T01:20:38;98713.02;;;2.56;78.03
76229;BME280;65021;53.174;18.160;2023-02-25T01:23:05;98713.23;;;2.56;78.13
76229;BME280;65021;53.174;18.160;2023-02-25T01:25:32;98715.06;;;2.57;78.11
76229;BME280;65021;53.174;18.160;2023-02-25T01:27:59;98707.53;;;2.58;78.33
76229;BME280;65021;53.174;18.160;2023-02-25T01:30:25;98704.63;;;2.59;78.23
76229;BME280;65021;53.174;18.160;2023-02-25T01:32:52;98702.98;;;2.61;78.30
76229;BME280;65021;53.174;18.160;2023-02-25T01:35:19;98699.84;;;2.60;78.48
76229;BME280;65021;53.174;18.160;2023-02-25T01:37:45;98703.20;;;2.59;78.44
76229;BME280;65021;53.174;18.160;2023-02-25T01:40:14;98696.92;;;2.57;78.35
76229;BME280;65021;53.174;18.160;2023-02-25T01:42:44;98698.61;;;2.53;78.56
76229;BME280;65021;53.174;18.160;2023-02-25T01:47:45;98692.65;;;2.46;78.70
76229;BME280;65021;53.174;18.160;2023-02-25T01:50:14;98690.67;;;2.43;78.65
76229;BME280;65021;53.174;18.160;2023-02-25T01:52:41;98685.54;;;2.42;78.79
76229;BME280;65021;53.174;18.160;2023-02-25T01:55:09;98681.80;;;2.41;78.75
76229;BME280;65021;53.174;18.160;2023-02-25T01:57:36;98679.07;;;2.39;78.58
76229;BME280;65021;53.174;18.160;2023-02-25T02:00:06;98675.52;;;2.37;78.68
76229;BME280;65021;53.174;18.160;2023-02-25T02:02:37;98671.27;;;2.35;78.63
76229;BME280;65021;53.174;18.160;2023-02-25T02:05:05;98673.89;;;2.35;79.26
76229;BME280;65021;53.174;18.160;2023-02-25T02:07:32;98670.56;;;2.32;79.15
76229;BME280;65021;53.174;18.160;2023-02-25T02:09:58;98661.03;;;2.33;79.08
76229;BME280;65021;53.174;18.160;2023-02-25T02:12:32;98654.63;;;2.33;79.25
76229;BME280;65021;53.174;18.160;2023-02-25T02:15:01;98652.39;;;2.33;79.08
76229;BME280;65021;53.174;18.160;2023-02-25T02:17:38;98650.09;;;2.34;79.19
76229;BME280;65021;53.174;18.160;2023-02-25T02:20:14;98646.80;;;2.35;79.10
76229;BME280;65021;53.174;18.160;2023-02-25T02:28:47;98641.32;;;2.35;79.40
76229;BME280;65021;53.174;18.160;2023-02-25T02:39:28;98629.69;;;2.34;79.56
76229;BME280;65021;53.174;18.160;2023-02-25T02:44:36;98626.27;;;2.33;79.77
76229;BME280;65021;53.174;18.160;2023-02-25T02:47:09;98621.39;;;2.33;79.71
76229;BME280;65021;53.174;18.160;2023-02-25T02:49:51;98617.01;;;2.33;79.81
76229;BME280;65021;53.174;18.160;2023-02-25T02:52:26;98617.94;;;2.32;79.75
76229;BME280;65021;53.174;18.160;2023-02-25T02:55:00;98611.95;;;2.32;79.57
76229;BME280;65021;53.174;18.160;2023-02-25T02:57:28;98611.16;;;2.31;79.54
76229;BME280;65021;53.174;18.160;2023-02-25T03:00:05;98612.98;;;2.31;80.13
76229;BME280;65021;53.174;18.160;2023-02-25T03:02:40;98609.77;;;2.29;80.01
76229;BME280;65021;53.174;18.160;2023-02-25T03:05:10;98608.76;;;2.28;80.29
76229;BME280;65021;53.174;18.160;2023-02-25T03:07:46;98606.19;;;2.26;80.27
76229;BME280;65021;53.174;18.160;2023-02-25T03:10:18;98605.21;;;2.24;80.08
76229;BME280;65021;53.174;18.160;2023-02-25T03:12:47;98606.56;;;2.23;80.23
76229;BME280;65021;53.174;18.160;2023-02-25T03:15:14;98604.04;;;2.22;80.15
76229;BME280;65021;53.174;18.160;2023-02-25T03:17:45;98603.80;;;2.19;80.51
76229;BME280;65021;53.174;18.160;2023-02-25T03:20:18;98603.61;;;2.17;80.52
76229;BME280;65021;53.174;18.160;2023-02-25T03:22:48;98598.89;;;2.14;80.50
76229;BME280;65021;53.174;18.160;2023-02-25T03:25:31;98602.95;;;2.08;80.29
76229;BME280;65021;53.174;18.160;2023-02-25T03:28:15;98601.11;;;2.02;80.22
76229;BME280;65021;53.174;18.160;2023-02-25T03:30:52;98599.14;;;2.01;80.03
76229;BME280;65021;53.174;18.160;2023-02-25T03:33:44;98592.17;;;2.01;80.36
76229;BME280;65021;53.174;18.160;2023-02-25T03:36:18;98593.30;;;2.03;80.41
76229;BME280;65021;53.174;18.160;2023-02-25T03:38:51;98590.44;;;2.05;80.41
76229;BME280;65021;53.174;18.160;2023-02-25T03:41:20;98590.05;;;2.08;80.32
76229;BME280;65021;53.174;18.160;2023-02-25T03:43:54;98586.92;;;2.08;80.27
76229;BME280;65021;53.174;18.160;2023-02-25T03:46:21;98585.54;;;2.07;80.37
76229;BME280;65021;53.174;18.160;2023-02-25T03:48:50;98584.14;;;2.05;80.79
76229;BME280;65021;53.174;18.160;2023-02-25T03:51:20;98582.35;;;2.06;80.59
76229;BME280;65021;53.174;18.160;2023-02-25T03:53:49;98585.39;;;2.08;80.66
76229;BME280;65021;53.174;18.160;2023-02-25T03:56:16;98584.73;;;2.08;80.75
76229;BME280;65021;53.174;18.160;2023-02-25T03:58:43;98586.13;;;2.08;80.74
76229;BME280;65021;53.174;18.160;2023-02-25T04:01:24;98585.74;;;2.07;80.87
76229;BME280;65021;53.174;18.160;2023-02-25T04:03:51;98585.32;;;2.04;81.56
76229;BME280;65021;53.174;18.160;2023-02-25T04:06:23;98579.08;;;2.01;81.24
76229;BME280;65021;53.174;18.160;2023-02-25T04:08:50;98580.03;;;1.99;81.19
76229;BME280;65021;53.174;18.160;2023-02-25T04:11:17;98582.06;;;1.97;81.29
76229;BME280;65021;53.174;18.160;2023-02-25T04:13:44;98582.47;;;1.95;81.37
76229;BME280;65021;53.174;18.160;2023-02-25T04:16:10;98581.13;;;1.94;81.59
76229;BME280;65021;53.174;18.160;2023-02-25T04:18:37;98579.66;;;1.93;81.56
76229;BME280;65021;53.174;18.160;2023-02-25T04:21:05;98576.48;;;1.94;81.67
76229;BME280;65021;53.174;18.160;2023-02-25T04:23:32;98575.11;;;1.93;81.45
76229;BME280;65021;53.174;18.160;2023-02-25T04:25:59;98569.63;;;1.93;81.54
76229;BME280;65021;53.174;18.160;2023-02-25T04:28:26;98567.73;;;1.95;81.48
76229;BME280;65021;53.174;18.160;2023-02-25T04:30:53;98563.86;;;1.99;81.51
76229;BME280;65021;53.174;18.160;2023-02-25T04:33:19;98562.08;;;2.03;81.49
76229;BME280;65021;53.174;18.160;2023-02-25T04:35:46;98560.30;;;2.07;81.38
76229;BME280;65021;53.174;18.160;2023-02-25T04:38:12;98561.25;;;2.12;81.52
76229;BME280;65021;53.174;18.160;2023-02-25T04:40:39;98560.89;;;2.16;81.39
76229;BME280;65021;53.174;18.160;2023-02-25T04:43:06;98562.23;;;2.20;81.45
76229;BME280;65021;53.174;18.160;2023-02-25T04:45:35;98563.27;;;2.24;81.43
76229;BME280;65021;53.174;18.160;2023-02-25T04:48:01;98556.27;;;2.27;81.60
76229;BME280;65021;53.174;18.160;2023-02-25T04:50:28;98550.91;;;2.31;81.57
76229;BME280;65021;53.174;18.160;2023-02-25T04:52:55;98550.97;;;2.34;81.49
76229;BME280;65021;53.174;18.160;2023-02-25T04:55:24;98551.58;;;2.37;81.61
76229;BME280;65021;53.174;18.160;2023-02-25T04:57:51;98548.31;;;2.39;81.57
76229;BME280;65021;53.174;18.160;2023-02-25T05:00:20;98543.98;;;2.43;81.66
76229;BME280;65021;53.174;18.160;2023-02-25T05:02:49;98540.31;;;2.49;81.78
76229;BME280;65021;53.174;18.160;2023-02-25T05:05:17;98535.85;;;2.54;81.61
76229;BME280;65021;53.174;18.160;2023-02-25T05:07:44;98533.40;;;2.55;81.73
76229;BME280;65021;53.174;18.160;2023-02-25T05:10:12;98529.16;;;2.57;81.74
76229;BME280;65021;53.174;18.160;2023-02-25T05:12:40;98529.95;;;2.58;81.84
76229;BME280;65021;53.174;18.160;2023-02-25T05:15:07;98528.16;;;2.60;81.74
76229;BME280;65021;53.174;18.160;2023-02-25T05:17:34;98521.76;;;2.61;81.88
76229;BME280;65021;53.174;18.160;2023-02-25T05:20:01;98524.67;;;2.61;81.96
76229;BME280;65021;53.174;18.160;2023-02-25T05:22:31;98523.30;;;2.64;81.89
76229;BME280;65021;53.174;18.160;2023-02-25T05:24:57;98518.47;;;2.68;81.89
76229;BME280;65021;53.174;18.160;2023-02-25T05:27:24;98518.50;;;2.70;81.86
76229;BME280;65021;53.174;18.160;2023-02-25T05:29:50;98521.05;;;2.75;81.84
76229;BME280;65021;53.174;18.160;2023-02-25T05:32:17;98525.55;;;2.78;81.87
76229;BME280;65021;53.174;18.160;2023-02-25T05:34:43;98520.24;;;2.80;81.80
76229;BME280;65021;53.174;18.160;2023-02-25T05:37:10;98522.98;;;2.83;82.07
76229;BME280;65021;53.174;18.160;2023-02-25T05:39:37;98518.97;;;2.86;81.91
76229;BME280;65021;53.174;18.160;2023-02-25T05:42:03;98521.78;;;2.88;82.00
76229;BME280;65021;53.174;18.160;2023-02-25T05:44:30;98524.02;;;2.86;81.95
76229;BME280;65021;53.174;18.160;2023-02-25T05:46:56;98526.53;;;2.83;82.03
76229;BME280;65021;53.174;18.160;2023-02-25T05:49:23;98524.61;;;2.79;82.32
76229;BME280;65021;53.174;18.160;2023-02-25T05:51:50;98527.02;;;2.74;82.53
76229;BME280;65021;53.174;18.160;2023-02-25T05:54:16;98526.12;;;2.70;82.44
76229;BME280;65021;53.174;18.160;2023-02-25T05:56:43;98528.56;;;2.68;82.40
76229;BME280;65021;53.174;18.160;2023-02-25T05:59:10;98529.73;;;2.65;82.30
76229;BME280;65021;53.174;18.160;2023-02-25T06:01:37;98529.46;;;2.62;82.31
76229;BME280;65021;53.174;18.160;2023-02-25T06:04:04;98531.27;;;2.61;82.63
76229;BME280;65021;53.174;18.160;2023-02-25T06:06:31;98525.45;;;2.62;82.50
76229;BME280;65021;53.174;18.160;2023-02-25T06:08:58;98529.63;;;2.62;82.52
76229;BME280;65021;53.174;18.160;2023-02-25T06:11:27;98532.41;;;2.61;82.49
76229;BME280;65021;53.174;18.160;2023-02-25T06:13:55;98529.73;;;2.63;82.48
76229;BME280;65021;53.174;18.160;2023-02-25T06:16:22;98530.98;;;2.64;82.66
76229;BME280;65021;53.174;18.160;2023-02-25T06:18:50;98528.47;;;2.69;82.61
76229;BME280;65021;53.174;18.160;2023-02-25T06:21:17;98531.08;;;2.74;82.51
76229;BME280;65021;53.174;18.160;2023-02-25T06:23:44;98530.66;;;2.76;82.60
76229;BME280;65021;53.174;18.160;2023-02-25T06:26:13;98533.19;;;2.80;82.46
76229;BME280;65021;53.174;18.160;2023-02-25T06:28:40;98533.91;;;2.84;82.55
76229;BME280;65021;53.174;18.160;2023-02-25T06:31:13;98540.61;;;2.88;82.43
76229;BME280;65021;53.174;18.160;2023-02-25T06:33:41;98538.86;;;2.91;82.53
76229;BME280;65021;53.174;18.160;2023-02-25T06:36:08;98538.61;;;2.94;82.60
76229;BME280;65021;53.174;18.160;2023-02-25T06:38:35;98534.86;;;2.95;82.57
76229;BME280;65021;53.174;18.160;2023-02-25T06:41:11;98537.00;;;2.99;82.51
76229;BME280;65021;53.174;18.160;2023-02-25T06:43:40;98537.61;;;3.04;82.55
76229;BME280;65021;53.174;18.160;2023-02-25T06:46:09;98537.41;;;3.08;82.53
76229;BME280;65021;53.174;18.160;2023-02-25T06:48:36;98534.88;;;3.16;82.54
76229;BME280;65021;53.174;18.160;2023-02-25T06:51:04;98533.60;;;3.22;82.46
76229;BME280;65021;53.174;18.160;2023-02-25T06:53:38;98539.64;;;3.30;82.46
76229;BME280;65021;53.174;18.160;2023-02-25T06:56:06;98539.82;;;3.35;82.42
76229;BME280;65021;53.174;18.160;2023-02-25T06:58:34;98543.87;;;3.43;82.45
76229;BME280;65021;53.174;18.160;2023-02-25T07:01:08;98547.85;;;3.53;82.39
76229;BME280;65021;53.174;18.160;2023-02-25T07:03:35;98547.70;;;3.63;82.38
76229;BME280;65021;53.174;18.160;2023-02-25T07:06:02;98548.53;;;3.72;82.40
76229;BME280;65021;53.174;18.160;2023-02-25T07:08:29;98547.17;;;3.82;82.42
76229;BME280;65021;53.174;18.160;2023-02-25T07:11:09;98545.95;;;3.87;82.47
76229;BME280;65021;53.174;18.160;2023-02-25T07:13:35;98549.85;;;3.95;82.37
76229;BME280;65021;53.174;18.160;2023-02-25T07:16:02;98549.02;;;4.00;82.33
76229;BME280;65021;53.174;18.160;2023-02-25T07:18:28;98549.08;;;4.01;82.27
76229;BME280;65021;53.174;18.160;2023-02-25T07:20:56;98549.17;;;3.98;82.23
76229;BME280;65021;53.174;18.160;2023-02-25T07:23:23;98549.73;;;3.95;82.25
76229;BME280;65021;53.174;18.160;2023-02-25T07:25:50;98551.61;;;3.90;82.25
76229;BME280;65021;53.174;18.160;2023-02-25T07:28:16;98552.86;;;3.88;82.19
76229;BME280;65021;53.174;18.160;2023-02-25T07:30:43;98554.88;;;3.84;82.18
76229;BME280;65021;53.174;18.160;2023-02-25T07:33:09;98557.00;;;3.82;82.22
76229;BME280;65021;53.174;18.160;2023-02-25T07:35:36;98554.00;;;3.79;82.16
76229;BME280;65021;53.174;18.160;2023-02-25T07:38:03;98558.06;;;3.74;82.07
76229;BME280;65021;53.174;18.160;2023-02-25T07:40:29;98558.42;;;3.72;82.18
76229;BME280;65021;53.174;18.160;2023-02-25T07:42:56;98563.48;;;3.73;82.08
76229;BME280;65021;53.174;18.160;2023-02-25T07:45:22;98561.54;;;3.75;82.12
76229;BME280;65021;53.174;18.160;2023-02-25T07:47:51;98564.55;;;3.79;82.11
76229;BME280;65021;53.174;18.160;2023-02-25T07:50:18;98563.33;;;3.83;82.00
76229;BME280;65021;53.174;18.160;2023-02-25T07:52:45;98563.44;;;3.86;82.04
76229;BME280;65021;53.174;18.160;2023-02-25T07:55:11;98567.23;;;3.87;82.02
76229;BME280;65021;53.174;18.160;2023-02-25T07:57:38;98568.70;;;3.80;81.91
76229;BME280;65021;53.174;18.160;2023-02-25T08:00:05;98568.67;;;3.74;82.06
76229;BME280;65021;53.174;18.160;2023-02-25T08:02:36;98568.48;;;3.73;82.18
76229;BME280;65021;53.174;18.160;2023-02-25T08:05:03;98569.71;;;3.74;81.98
76229;BME280;65021;53.174;18.160;2023-02-25T08:07:30;98568.55;;;3.72;81.86
76229;BME280;65021;53.174;18.160;2023-02-25T08:09:56;98574.19;;;3.67;82.01
76229;BME280;65021;53.174;18.160;2023-02-25T08:12:23;98571.27;;;3.63;82.06
76229;BME280;65021;53.174;18.160;2023-02-25T08:14:49;98574.95;;;3.68;82.02
76229;BME280;65021;53.174;18.160;2023-02-25T08:17:16;98576.84;;;3.73;81.53
76229;BME280;65021;53.174;18.160;2023-02-25T08:19:43;98580.73;;;3.60;80.62
76229;BME280;65021;53.174;18.160;2023-02-25T08:22:10;98577.64;;;3.62;80.97
76229;BME280;65021;53.174;18.160;2023-02-25T08:24:39;98585.40;;;3.64;80.81
76229;BME280;65021;53.174;18.160;2023-02-25T08:27:06;98582.01;;;3.61;80.90
76229;BME280;65021;53.174;18.160;2023-02-25T08:29:36;98587.59;;;3.71;81.02
76229;BME280;65021;53.174;18.160;2023-02-25T08:32:04;98594.96;;;3.80;81.04
76229;BME280;65021;53.174;18.160;2023-02-25T08:34:31;98596.15;;;3.91;80.75
76229;BME280;65021;53.174;18.160;2023-02-25T08:36:57;98595.04;;;3.97;80.57
76229;BME280;65021;53.174;18.160;2023-02-25T08:39:25;98596.87;;;4.02;80.95
76229;BME280;65021;53.174;18.160;2023-02-25T08:41:51;98598.27;;;4.08;80.57
76229;BME280;65021;53.174;18.160;2023-02-25T08:44:18;98596.65;;;4.02;79.51
76229;BME280;65021;53.174;18.160;2023-02-25T08:46:45;98599.33;;;4.01;79.55
76229;BME280;65021;53.174;18.160;2023-02-25T08:49:12;98601.65;;;4.11;80.10
76229;BME280;65021;53.174;18.160;2023-02-25T08:51:38;98602.39;;;4.22;80.13
76229;BME280;65021;53.174;18.160;2023-02-25T08:54:09;98606.93;;;4.20;79.22
76229;BME280;65021;53.174;18.160;2023-02-25T08:56:36;98603.91;;;4.17;79.09
76229;BME280;65021;53.174;18.160;2023-02-25T08:59:03;98607.45;;;4.24;79.46
76229;BME280;65021;53.174;18.160;2023-02-25T09:01:30;98610.19;;;4.42;79.45
76229;BME280;65021;53.174;18.160;2023-02-25T09:04:18;98614.00;;;4.49;79.11
76229;BME280;65021;53.174;18.160;2023-02-25T09:06:47;98618.46;;;4.45;79.00
76229;BME280;65021;53.174;18.160;2023-02-25T09:09:15;98620.29;;;4.40;79.20
76229;BME280;65021;53.174;18.160;2023-02-25T09:11:43;98624.16;;;4.46;79.67
76229;BME280;65021;53.174;18.160;2023-02-25T09:14:11;98621.18;;;4.47;79.29
76229;BME280;65021;53.174;18.160;2023-02-25T09:16:37;98622.91;;;4.37;78.67
76229;BME280;65021;53.174;18.160;2023-02-25T09:19:04;98628.95;;;4.22;78.41
76229;BME280;65021;53.174;18.160;2023-02-25T09:21:31;98633.50;;;4.04;78.60
76229;BME280;65021;53.174;18.160;2023-02-25T09:23:58;98637.95;;;3.82;78.98
76229;BME280;65021;53.174;18.160;2023-02-25T09:26:25;98642.22;;;3.72;79.65
76229;BME280;65021;53.174;18.160;2023-02-25T09:28:52;98648.48;;;3.76;79.56
76229;BME280;65021;53.174;18.160;2023-02-25T09:31:18;98644.85;;;3.80;79.58
76229;BME280;65021;53.174;18.160;2023-02-25T09:33:45;98650.75;;;3.74;79.48
76229;BME280;65021;53.174;18.160;2023-02-25T09:36:14;98647.97;;;3.63;79.71
76229;BME280;65021;53.174;18.160;2023-02-25T09:38:42;98652.09;;;3.64;79.82
76229;BME280;65021;53.174;18.160;2023-02-25T09:41:27;98656.42;;;3.67;79.85
76229;BME280;65021;53.174;18.160;2023-02-25T09:50:05;98667.32;;;3.68;79.00
76229;BME280;65021;53.174;18.160;2023-02-25T09:52:41;98668.61;;;3.62;79.29
76229;BME280;65021;53.174;18.160;2023-02-25T09:55:18;98671.10;;;3.59;79.58
76229;BME280;65021;53.174;18.160;2023-02-25T09:57:54;98674.77;;;3.67;79.55
76229;BME280;65021;53.174;18.160;2023-02-25T10:00:22;98676.65;;;3.74;79.43
76229;BME280;65021;53.174;18.160;2023-02-25T10:03:10;98678.70;;;3.80;79.53
76229;BME280;65021;53.174;18.160;2023-02-25T10:11:28;98687.02;;;3.82;79.44
76229;BME280;65021;53.174;18.160;2023-02-25T10:14:13;98690.84;;;3.94;79.58
76229;BME280;65021;53.174;18.160;2023-02-25T10:27:43;98702.23;;;4.35;78.87
76229;BME280;65021;53.174;18.160;2023-02-25T10:30:19;98701.29;;;4.25;79.05
76229;BME280;65021;53.174;18.160;2023-02-25T10:32:49;98706.67;;;4.16;78.95
76229;BME280;65021;53.174;18.160;2023-02-25T10:35:28;98712.40;;;4.05;78.96
76229;BME280;65021;53.174;18.160;2023-02-25T10:37:57;98716.14;;;4.00;79.41
76229;BME280;65021;53.174;18.160;2023-02-25T10:40:24;98716.79;;;4.04;79.47
76229;BME280;65021;53.174;18.160;2023-02-25T10:43:17;98718.12;;;4.05;79.18
76229;BME280;65021;53.174;18.160;2023-02-25T10:45:46;98721.89;;;4.00;79.27
76229;BME280;65021;53.174;18.160;2023-02-25T10:48:19;98722.57;;;3.96;79.44
76229;BME280;65021;53.174;18.160;2023-02-25T10:51:06;98731.02;;;3.92;79.41
76229;BME280;65021;53.174;18.160;2023-02-25T10:54:04;98730.33;;;3.89;79.74
76229;BME280;65021;53.174;18.160;2023-02-25T10:56:40;98737.77;;;3.98;79.69
76229;BME280;65021;53.174;18.160;2023-02-25T10:59:34;98738.20;;;3.97;79.42
76229;BME280;65021;53.174;18.160;2023-02-25T11:02:04;98743.41;;;4.01;79.46
76229;BME280;65021;53.174;18.160;2023-02-25T11:04:43;98745.09;;;3.99;79.49
76229;BME280;65021;53.174;18.160;2023-02-25T11:07:24;98745.17;;;4.01;79.60
76229;BME280;65021;53.174;18.160;2023-02-25T11:12:47;98753.09;;;4.21;79.46
76229;BME280;65021;53.174;18.160;2023-02-25T11:15:36;98758.45;;;4.31;79.33
76229;BME280;65021;53.174;18.160;2023-02-25T11:18:18;98761.25;;;4.26;79.42
76229;BME280;65021;53.174;18.160;2023-02-25T11:20:52;98763.89;;;4.22;79.85
76229;BME280;65021;53.174;18.160;2023-02-25T11:23:37;98764.91;;;4.21;79.86
76229;BME280;65021;53.174;18.160;2023-02-25T11:26:05;98764.58;;;4.05;80.10
76229;BME280;65021;53.174;18.160;2023-02-25T11:28:44;98767.52;;;3.88;80.50
76229;BME280;65021;53.174;18.160;2023-02-25T11:31:16;98769.69;;;3.79;80.59
76229;BME280;65021;53.174;18.160;2023-02-25T11:33:58;98769.63;;;3.87;80.71
76229;BME280;65021;53.174;18.160;2023-02-25T11:36:34;98767.66;;;4.01;80.47
76229;BME280;65021;53.174;18.160;2023-02-25T11:41:48;98778.60;;;4.17;80.41
76229;BME280;65021;53.174;18.160;2023-02-25T11:46:43;98779.80;;;4.40;80.02
76229;BME280;65021;53.174;18.160;2023-02-25T11:49:17;98781.95;;;4.62;79.92
76229;BME280;65021;53.174;18.160;2023-02-25T11:51:51;98786.89;;;4.78;79.50
76229;BME280;65021;53.174;18.160;2023-02-25T11:57:05;98795.16;;;4.84;79.40
76229;BME280;65021;53.174;18.160;2023-02-25T11:59:51;98799.42;;;4.73;79.37
76229;BME280;65021;53.174;18.160;2023-02-25T12:17:19;98814.00;;;3.91;80.95
76229;BME280;65021;53.174;18.160;2023-02-25T12:26:30;98820.02;;;4.07;80.73
76229;BME280;65021;53.174;18.160;2023-02-25T12:29:10;98820.20;;;4.05;80.51
76229;BME280;65021;53.174;18.160;2023-02-25T12:34:44;98821.50;;;3.99;81.37
76229;BME280;65021;53.174;18.160;2023-02-25T12:52:05;98848.57;;;4.32;80.94
76229;BME280;65021;53.174;18.160;2023-02-25T13:00:49;98864.84;;;4.51;80.53
76229;BME280;65021;53.174;18.160;2023-02-25T13:14:36;98895.75;;;4.36;80.67
76229;BME280;65021;53.174;18.160;2023-02-25T13:20:13;98909.27;;;4.27;80.23
76229;BME280;65021;53.174;18.160;2023-02-25T13:25:36;98921.35;;;4.14;79.87
76229;BME280;65021;53.174;18.160;2023-02-25T13:28:19;98929.41;;;4.03;79.91
76229;BME280;65021;53.174;18.160;2023-02-25T13:30:58;98934.30;;;4.05;79.68
76229;BME280;65021;53.174;18.160;2023-02-25T13:39:12;98950.18;;;4.14;79.94
76229;BME280;65021;53.174;18.160;2023-02-25T13:42:07;98957.99;;;4.05;80.02
76229;BME280;65021;53.174;18.160;2023-02-25T13:44:55;98961.79;;;4.17;79.44
76229;BME280;65021;53.174;18.160;2023-02-25T13:48:07;98964.98;;;4.28;79.56
76229;BME280;65021;53.174;18.160;2023-02-25T13:56:45;98980.09;;;4.56;78.35
76229;BME280;65021;53.174;18.160;2023-02-25T14:02:40;98998.64;;;4.41;77.67
76229;BME280;65021;53.174;18.160;2023-02-25T14:08:17;99011.56;;;4.47;77.43
76229;BME280;65021;53.174;18.160;2023-02-25T14:10:53;99018.75;;;4.42;76.91
76229;BME280;65021;53.174;18.160;2023-02-25T14:16:46;99025.45;;;4.29;76.54
76229;BME280;65021;53.174;18.160;2023-02-25T14:19:38;99033.47;;;4.28;77.00
76229;BME280;65021;53.174;18.160;2023-02-25T14:22:45;99043.58;;;4.16;77.23
76229;BME280;65021;53.174;18.160;2023-02-25T14:28:24;99063.61;;;4.00;77.91
76229;BME280;65021;53.174;18.160;2023-02-25T14:33:51;99067.02;;;3.85;78.30
76229;BME280;65021;53.174;18.160;2023-02-25T14:39:05;99100.42;;;3.61;78.80
76229;BME280;65021;53.174;18.160;2023-02-25T14:47:44;99124.42;;;3.29;77.98
76229;BME280;65021;53.174;18.160;2023-02-25T14:50:21;99126.54;;;3.28;77.96
76229;BME280;65021;53.174;18.160;2023-02-25T14:55:56;99138.31;;;3.20;78.08
76229;BME280;65021;53.174;18.160;2023-02-25T14:58:40;99145.17;;;3.18;78.14
76229;BME280;65021;53.174;18.160;2023-02-25T15:01:53;99157.67;;;3.16;78.24
76229;BME280;65021;53.174;18.160;2023-02-25T15:04:40;99170.20;;;3.17;78.31
76229;BME280;65021;53.174;18.160;2023-02-25T15:20:45;99203.02;;;2.91;77.57
76229;BME280;65021;53.174;18.160;2023-02-25T15:23:14;99214.39;;;2.87;77.56
76229;BME280;65021;53.174;18.160;2023-02-25T15:33:41;99230.63;;;2.60;77.94
76229;BME280;65021;53.174;18.160;2023-02-25T15:38:46;99244.76;;;2.54;77.62
76229;BME280;65021;53.174;18.160;2023-02-25T15:43:56;99251.58;;;2.42;77.39
76229;BME280;65021;53.174;18.160;2023-02-25T15:51:56;99277.33;;;2.35;77.75
76229;BME280;65021;53.174;18.160;2023-02-25T15:56:56;99291.61;;;2.25;77.96
76229;BME280;65021;53.174;18.160;2023-02-25T15:59:43;99292.34;;;2.18;78.30
76229;BME280;65021;53.174;18.160;2023-02-25T16:05:00;99302.07;;;2.07;78.68
76229;BME280;65021;53.174;18.160;2023-02-25T16:07:40;99319.62;;;2.02;78.86
76229;BME280;65021;53.174;18.160;2023-02-25T16:10:21;99325.07;;;1.99;78.77
76229;BME280;65021;53.174;18.160;2023-02-25T16:12:52;99334.21;;;1.97;78.72
76229;BME280;65021;53.174;18.160;2023-02-25T16:15:38;99343.86;;;1.93;78.91
76229;BME280;65021;53.174;18.160;2023-02-25T16:20:45;99355.02;;;1.89;79.10
76229;BME280;65021;53.174;18.160;2023-02-25T16:23:14;99367.48;;;1.87;79.22
76229;BME280;65021;53.174;18.160;2023-02-25T16:26:04;99374.84;;;1.84;79.09
76229;BME280;65021;53.174;18.160;2023-02-25T16:28:37;99388.69;;;1.80;79.23
76229;BME280;65021;53.174;18.160;2023-02-25T16:34:15;99400.55;;;1.74;79.32
76229;BME280;65021;53.174;18.160;2023-02-25T16:39:42;99414.60;;;1.69;79.02
76229;BME280;65021;53.174;18.160;2023-02-25T16:42:14;99421.08;;;1.68;79.10